首页
METAR-TAF:

METAR-TAF

机场 :

新奥尔良路易斯阿姆斯特朗国际机场

新奥尔良, 路易斯安那州, 美国

纬度: 29-59-34N, 经度: 090-15-03W, 海拔: 1米

当前天气观测

该预报发布于33分钟前的22:53 UTC
风速10节,风向
温度 33°C
湿度 59%
气压 1012 hPa
能見度: 16.1公里
少量云层高于4000英尺
散云层高于25000英尺

METAR: KMSY 232253Z 18010KT 10SM FEW040 SCT250 33/24 A2989 RMK AO2 SLP124 T03280244

时间: 18:26 (23:26 UTC)

预报

该预报发布于6小时和3分钟前的17:23 UTC
预报有效从23日的 18点(UTC)到 24日的 24点(UTC)
风速10节,风向西南
能見度: 10公里
散云层高于4000英尺
多云层高于20000英尺
从 24日的 0200点(UTC)
风速7节,风向
能見度: 10公里
少量云层高于2500英尺
从 24日的 0900点(UTC)
风速5节,风向南转西南
能見度: 10公里
散云层高于1500英尺
从 24日的 1600点(UTC)
风速7节,风向
能見度: 10公里
散云层高于4000英尺

TAF: KMSY 231723Z 2318/2424 22010KT P6SM SCT040 BKN200 FM240200 19007KT P6SM FEW025 FM240900 20005KT P6SM SCT015 FM241600 19007KT P6SM SCT040

超过4000个机场的气象观测和天气预报(METAR&TAF报告)。

可查询的气象台以黄色和红色小点在地图上表示。

将鼠标移到小点上方,可查看气象台名称。

然后点击查看天气观测和预报。

如需切换地图:点击带黑十字的绿色按钮放大地图;点击带横线的绿色按钮缩小地图;或者点击绿色箭头查看邻近地区的地图。


METAR-TAF: